createdAt,value
2023-04-02T00:01:23.689Z,40.42
2023-04-02T00:04:04.483Z,40.77
2023-04-02T00:06:33.418Z,40.63
2023-04-02T00:09:01.641Z,40.82
2023-04-02T00:11:30.329Z,40.76
2023-04-02T00:14:00.373Z,40.92
2023-04-02T00:16:27.570Z,40.71
2023-04-02T00:18:56.029Z,40.61
2023-04-02T00:21:25.838Z,40.41
2023-04-02T00:23:53.921Z,40.49
2023-04-02T00:26:21.808Z,40.40
2023-04-02T00:28:48.932Z,40.42
2023-04-02T00:31:17.162Z,40.46
2023-04-02T00:33:44.062Z,40.63
2023-04-02T00:36:10.989Z,40.57
2023-04-02T00:38:39.198Z,40.63
2023-04-02T00:41:07.378Z,40.62
2023-04-02T00:43:36.523Z,40.68
2023-04-02T00:46:04.748Z,40.69
2023-04-02T00:48:37.765Z,40.67
2023-04-02T00:51:10.531Z,40.66
2023-04-02T00:53:39.127Z,40.85
2023-04-02T00:56:12.631Z,40.64
2023-04-02T00:58:39.837Z,40.88
2023-04-02T01:01:15.743Z,40.54
2023-04-02T01:03:42.733Z,40.76
2023-04-02T01:06:11.232Z,40.61
2023-04-02T01:08:44.437Z,40.66
2023-04-02T01:11:20.199Z,40.43
2023-04-02T01:13:52.134Z,40.49
2023-04-02T01:16:22.809Z,40.42
2023-04-02T01:18:52.985Z,40.73
2023-04-02T01:21:37.815Z,40.66
2023-04-02T01:24:07.224Z,40.60
2023-04-02T01:26:39.673Z,40.43
2023-04-02T01:29:10.418Z,40.63
2023-04-02T01:31:38.269Z,40.38
2023-04-02T01:34:06.637Z,40.55
2023-04-02T01:36:37.497Z,40.75
2023-04-02T01:39:09.741Z,40.72
2023-04-02T01:41:39.123Z,40.94
2023-04-02T01:44:07.623Z,40.90
2023-04-02T01:46:39.879Z,40.97
2023-04-02T01:49:11.550Z,40.66
2023-04-02T01:51:40.010Z,40.94
2023-04-02T01:54:07.588Z,40.51
2023-04-02T01:56:35.122Z,40.42
2023-04-02T01:59:02.618Z,40.40
2023-04-02T02:01:33.410Z,40.62
2023-04-02T02:04:01.967Z,40.58
2023-04-02T02:06:29.028Z,40.58
2023-04-02T02:08:57.757Z,40.64
2023-04-02T02:11:26.910Z,40.43
2023-04-02T02:13:55.483Z,40.56
2023-04-02T02:16:23.076Z,40.62
2023-04-02T02:18:51.616Z,40.47
2023-04-02T02:21:24.150Z,40.57
2023-04-02T02:23:51.268Z,40.63
2023-04-02T02:26:18.262Z,40.64
2023-04-02T02:28:46.698Z,40.57
2023-04-02T02:31:16.262Z,40.79
2023-04-02T02:33:45.786Z,40.90
2023-04-02T02:36:16.375Z,40.76
2023-04-02T02:38:54.687Z,40.85
2023-04-02T02:41:25.950Z,40.78
2023-04-02T02:43:57.214Z,40.53
2023-04-02T02:46:25.515Z,40.44
2023-04-02T02:48:53.821Z,40.51
2023-04-02T02:51:24.952Z,40.54
2023-04-02T02:53:55.167Z,40.53
2023-04-02T02:56:23.277Z,40.42
2023-04-02T02:58:51.759Z,40.50
2023-04-02T03:01:19.207Z,40.38
2023-04-02T03:03:46.736Z,40.72
2023-04-02T03:06:15.202Z,40.52
2023-04-02T03:08:44.753Z,40.47
2023-04-02T03:11:16.599Z,40.70
2023-04-02T03:13:45.972Z,40.85
2023-04-02T03:16:16.507Z,40.81
2023-04-02T03:18:46.390Z,40.90
2023-04-02T03:21:25.351Z,40.84
2023-04-02T03:23:54.682Z,40.66
2023-04-02T03:26:25.354Z,40.61
2023-04-02T03:28:55.888Z,40.49
2023-04-02T03:31:25.671Z,40.70
2023-04-02T03:33:55.407Z,40.72
2023-04-02T03:36:25.395Z,40.71
2023-04-02T03:38:54.538Z,40.55
2023-04-02T03:41:26.273Z,40.48
2023-04-02T03:43:56.074Z,40.52
2023-04-02T03:46:26.811Z,40.58
2023-04-02T03:48:55.826Z,40.63
2023-04-02T03:51:26.478Z,40.64
2023-04-02T03:53:53.631Z,40.78
2023-04-02T03:56:26.475Z,40.69
2023-04-02T03:58:55.285Z,40.69
2023-04-02T04:01:25.918Z,40.60
2023-04-02T04:03:54.001Z,40.80
2023-04-02T04:06:23.896Z,40.70
2023-04-02T04:08:53.121Z,40.88
2023-04-02T04:11:24.547Z,40.75
2023-04-02T04:13:56.058Z,40.93
2023-04-02T04:16:26.331Z,40.62
2023-04-02T04:18:54.265Z,40.86
2023-04-02T04:21:22.823Z,41.04
2023-04-02T04:23:50.554Z,40.96
2023-04-02T04:26:20.047Z,41.27
2023-04-02T04:28:52.915Z,40.92
2023-04-02T04:31:24.598Z,41.16
2023-04-02T04:33:55.422Z,41.36
2023-04-02T04:36:24.140Z,41.48
2023-04-02T04:38:51.464Z,41.28
2023-04-02T04:41:23.406Z,42.33
2023-04-02T04:43:53.294Z,46.79
2023-04-02T04:46:23.404Z,40.99
2023-04-02T04:48:53.417Z,40.38
2023-04-02T04:51:22.374Z,39.63
2023-04-02T04:53:50.434Z,40.05
2023-04-02T04:56:19.759Z,39.30
2023-04-02T04:58:49.579Z,38.54
2023-04-02T05:01:20.120Z,38.55
2023-04-02T05:03:51.415Z,38.64
2023-04-02T05:06:21.922Z,38.75
2023-04-02T05:08:51.423Z,38.84
2023-04-02T05:11:23.681Z,38.82
2023-04-02T05:13:53.433Z,38.66
2023-04-02T05:16:24.481Z,38.40
2023-04-02T05:18:53.808Z,37.74
2023-04-02T05:21:23.487Z,37.61
2023-04-02T05:23:52.740Z,37.38
2023-04-02T05:26:21.852Z,37.70
2023-04-02T05:28:52.378Z,37.92
2023-04-02T05:31:22.566Z,37.86
2023-04-02T05:33:50.829Z,38.14
2023-04-02T05:36:21.450Z,38.21
2023-04-02T05:38:49.185Z,38.35
2023-04-02T05:41:21.872Z,38.37
2023-04-02T05:43:49.659Z,38.56
2023-04-02T05:46:17.377Z,38.65
2023-04-02T05:48:48.846Z,38.45
2023-04-02T05:51:18.692Z,38.95
2023-04-02T05:53:48.715Z,38.75
2023-04-02T05:56:18.426Z,38.90
2023-04-02T05:58:47.920Z,39.21
2023-04-02T06:01:32.562Z,39.07
2023-04-02T06:04:03.564Z,39.36
2023-04-02T06:06:42.568Z,39.58
2023-04-02T06:09:11.472Z,39.57
2023-04-02T06:11:40.169Z,39.57
2023-04-02T06:14:08.300Z,39.91
2023-04-02T06:16:35.217Z,39.96
2023-04-02T06:19:02.705Z,40.01
2023-04-02T06:21:29.514Z,41.56
2023-04-02T06:24:00.225Z,41.04
2023-04-02T06:26:29.499Z,40.95
2023-04-02T06:29:00.932Z,41.15
2023-04-02T06:31:29.395Z,40.70
2023-04-02T06:33:56.432Z,40.89
2023-04-02T06:36:24.057Z,40.45
2023-04-02T06:38:52.003Z,40.63
2023-04-02T06:41:21.632Z,40.93
2023-04-02T06:43:51.359Z,40.71
2023-04-02T06:46:21.750Z,40.77
2023-04-02T06:48:50.417Z,40.59
2023-04-02T06:51:19.019Z,41.45
2023-04-02T06:53:47.546Z,41.15
2023-04-02T06:56:20.821Z,41.86
2023-04-02T06:58:49.128Z,42.61
2023-04-02T07:01:17.854Z,42.51
2023-04-02T07:03:45.000Z,42.55
2023-04-02T07:06:14.049Z,42.52
2023-04-02T07:08:40.854Z,42.75
2023-04-02T07:11:07.721Z,43.16
2023-04-02T07:13:36.385Z,44.25
2023-04-02T07:16:05.064Z,44.88
2023-04-02T07:18:33.230Z,43.90
2023-04-02T07:21:00.215Z,45.55
2023-04-02T07:23:27.072Z,44.70
2023-04-02T07:25:54.376Z,44.35
2023-04-02T07:28:22.886Z,43.88
2023-04-02T07:30:50.909Z,44.08
2023-04-02T07:33:20.525Z,43.15
2023-04-02T07:35:48.126Z,43.15
2023-04-02T07:38:15.047Z,44.00
2023-04-02T07:40:41.943Z,45.69
2023-04-02T07:43:08.940Z,47.50
2023-04-02T07:45:35.979Z,49.91
2023-04-02T07:48:04.819Z,48.20
2023-04-02T07:50:33.026Z,55.24
2023-04-02T07:53:00.306Z,53.36
2023-04-02T07:55:27.200Z,63.61
2023-04-02T07:57:55.010Z,48.86
2023-04-02T08:00:22.614Z,45.58
2023-04-02T08:02:49.549Z,45.17
2023-04-02T08:05:16.892Z,44.40
2023-04-02T08:07:51.896Z,47.43
2023-04-02T08:10:18.844Z,44.42
2023-04-02T08:12:45.725Z,44.10
2023-04-02T08:15:14.365Z,43.87
2023-04-02T08:17:41.427Z,44.47
2023-04-02T08:20:13.841Z,45.23
2023-04-02T08:22:40.673Z,44.57
2023-04-02T08:25:09.542Z,44.11
2023-04-02T08:27:36.379Z,43.96
2023-04-02T08:30:03.519Z,43.47
2023-04-02T08:32:30.339Z,43.46
2023-04-02T08:34:57.177Z,42.93
2023-04-02T08:37:23.985Z,42.73
2023-04-02T08:39:50.792Z,42.89
2023-04-02T08:42:22.933Z,42.60
2023-04-02T08:44:54.816Z,42.72
2023-04-02T08:47:22.598Z,42.88
2023-04-02T08:49:50.872Z,42.59
2023-04-02T08:52:21.163Z,42.40
2023-04-02T08:54:48.159Z,42.37
2023-04-02T08:57:19.461Z,42.39
2023-04-02T08:59:49.477Z,42.21
2023-04-02T09:02:25.932Z,42.30
2023-04-02T09:04:53.218Z,42.32
2023-04-02T09:07:20.058Z,42.34
2023-04-02T09:09:48.242Z,42.51
2023-04-02T09:12:17.707Z,42.82
2023-04-02T09:14:45.537Z,42.38
2023-04-02T09:17:17.634Z,42.46
2023-04-02T09:19:49.285Z,42.49
2023-04-02T09:22:19.981Z,44.22
2023-04-02T09:24:51.287Z,42.77
2023-04-02T09:27:18.900Z,42.67
2023-04-02T09:29:46.923Z,42.56
2023-04-02T09:32:40.183Z,42.48
2023-04-02T09:35:18.404Z,42.64
2023-04-02T09:38:10.920Z,42.73
2023-04-02T09:40:42.904Z,42.54
2023-04-02T09:43:11.595Z,42.76
2023-04-02T09:45:38.778Z,42.80
2023-04-02T09:48:17.683Z,42.61
2023-04-02T09:50:44.614Z,42.52
2023-04-02T09:53:25.845Z,42.44
2023-04-02T09:56:06.875Z,42.57
2023-04-02T09:58:33.832Z,42.54
2023-04-02T10:01:00.907Z,42.80
2023-04-02T10:03:30.160Z,42.67
2023-04-02T10:06:07.778Z,42.58
2023-04-02T10:08:34.764Z,42.43
2023-04-02T10:11:03.326Z,42.46
2023-04-02T10:13:31.288Z,41.95
2023-04-02T10:16:00.738Z,42.05
2023-04-02T10:18:36.901Z,41.94
2023-04-02T10:21:04.703Z,41.96
2023-04-02T10:23:32.171Z,41.79
2023-04-02T10:26:05.345Z,41.62
2023-04-02T10:28:40.204Z,41.86
2023-04-02T10:31:10.143Z,41.17
2023-04-02T10:33:39.771Z,41.15
2023-04-02T10:36:09.170Z,46.26
2023-04-02T10:38:41.695Z,43.71
2023-04-02T10:41:13.763Z,44.14
2023-04-02T10:43:46.778Z,44.87
2023-04-02T10:46:19.183Z,44.20
2023-04-02T10:48:52.706Z,43.68
2023-04-02T10:51:28.177Z,43.81
2023-04-02T10:53:58.395Z,44.38
2023-04-02T10:56:26.728Z,43.58
2023-04-02T10:58:57.347Z,42.71
2023-04-02T11:01:25.692Z,59.21
2023-04-02T11:03:58.143Z,70.18
2023-04-02T11:06:27.649Z,69.98
2023-04-02T11:08:58.312Z,59.35
2023-04-02T11:11:26.889Z,49.04
2023-04-02T11:13:55.849Z,48.16
2023-04-02T11:16:22.937Z,47.98
2023-04-02T11:19:10.191Z,46.34
2023-04-02T11:21:51.445Z,46.88
2023-04-02T11:24:35.555Z,46.63
2023-04-02T11:27:07.027Z,46.49
2023-04-02T11:29:36.211Z,46.27
2023-04-02T11:32:14.003Z,45.07
2023-04-02T11:35:05.950Z,44.52
2023-04-02T11:37:36.516Z,44.07
2023-04-02T11:40:07.269Z,44.01
2023-04-02T11:42:34.831Z,43.94
2023-04-02T11:45:22.225Z,44.09
2023-04-02T11:48:03.964Z,44.42
2023-04-02T11:50:32.037Z,45.07
2023-04-02T11:53:01.957Z,44.89
2023-04-02T11:55:29.935Z,45.90
2023-04-02T11:58:29.920Z,46.03
2023-04-02T12:01:17.458Z,46.21
2023-04-02T12:04:01.300Z,46.23
2023-04-02T12:06:31.087Z,46.64
2023-04-02T12:09:03.515Z,47.63
2023-04-02T12:11:31.406Z,46.29
2023-04-02T12:13:58.571Z,45.41
2023-04-02T12:16:25.660Z,44.89
2023-04-02T12:18:53.054Z,44.11
2023-04-02T12:21:21.371Z,43.83
2023-04-02T12:23:48.840Z,43.51
2023-04-02T12:26:28.079Z,43.28
2023-04-02T12:28:55.049Z,43.17
2023-04-02T12:31:24.169Z,43.14
2023-04-02T12:33:51.814Z,42.88
2023-04-02T12:36:19.815Z,42.99
2023-04-02T12:38:47.926Z,42.72
2023-04-02T12:41:22.789Z,43.87
2023-04-02T12:43:58.335Z,44.52
2023-04-02T12:46:25.323Z,43.44
2023-04-02T12:48:52.848Z,43.02
2023-04-02T12:51:19.791Z,42.41
2023-04-02T12:53:50.298Z,42.67
2023-04-02T12:56:18.957Z,42.51
2023-04-02T12:58:53.211Z,42.53
2023-04-02T13:01:22.097Z,42.83
2023-04-02T13:04:07.804Z,42.23
2023-04-02T13:06:35.497Z,42.01
2023-04-02T13:09:03.644Z,41.77
2023-04-02T13:11:34.291Z,42.24
2023-04-02T13:14:02.326Z,41.98
2023-04-02T13:16:34.145Z,42.14
2023-04-02T13:19:25.076Z,42.23
2023-04-02T13:21:52.030Z,42.04
2023-04-02T13:24:19.581Z,41.89
2023-04-02T13:26:46.634Z,41.67
2023-04-02T13:29:18.687Z,41.79
2023-04-02T13:31:47.296Z,42.07
2023-04-02T13:34:14.193Z,41.71
2023-04-02T13:36:41.017Z,42.14
2023-04-02T13:39:08.029Z,41.94
2023-04-02T13:41:37.706Z,42.17
2023-04-02T13:44:04.756Z,42.09
2023-04-02T13:46:33.598Z,41.89
2023-04-02T13:49:01.757Z,41.38
2023-04-02T13:51:33.871Z,41.39
2023-04-02T13:54:00.687Z,41.16
2023-04-02T13:56:27.515Z,41.21
2023-04-02T13:58:54.353Z,41.48
2023-04-02T14:01:22.773Z,41.49
2023-04-02T14:03:49.917Z,41.16
2023-04-02T14:06:21.243Z,41.32
2023-04-02T14:08:53.106Z,41.02
2023-04-02T14:11:27.902Z,41.11
2023-04-02T14:14:01.819Z,41.22
2023-04-02T14:16:38.511Z,41.51
2023-04-02T14:19:14.103Z,41.46
2023-04-02T14:21:48.615Z,41.64
2023-04-02T14:24:17.746Z,41.34
2023-04-02T14:26:52.037Z,41.63
2023-04-02T14:29:23.796Z,41.54
2023-04-02T14:31:54.884Z,41.16
2023-04-02T14:34:24.225Z,41.50
2023-04-02T14:36:56.349Z,40.87
2023-04-02T14:39:28.053Z,40.61
2023-04-02T14:41:58.086Z,40.78
2023-04-02T14:44:27.764Z,40.80
2023-04-02T14:46:59.617Z,40.73
2023-04-02T14:49:28.851Z,40.81
2023-04-02T14:52:02.649Z,40.89
2023-04-02T14:54:33.152Z,40.96
2023-04-02T14:57:04.126Z,40.75
2023-04-02T14:59:34.011Z,40.56
2023-04-02T15:02:03.403Z,40.46
2023-04-02T15:04:33.396Z,40.68
2023-04-02T15:07:05.381Z,40.69
2023-04-02T15:09:35.028Z,40.59
2023-04-02T15:12:06.338Z,40.55
2023-04-02T15:14:36.190Z,40.68
2023-04-02T15:17:02.988Z,40.71
2023-04-02T15:19:29.794Z,40.54
2023-04-02T15:22:08.718Z,40.45
2023-04-02T15:24:41.963Z,40.29
2023-04-02T15:27:24.398Z,40.15
2023-04-02T15:29:55.963Z,40.18
2023-04-02T15:32:28.741Z,40.27
2023-04-02T15:34:59.362Z,40.42
2023-04-02T15:37:31.370Z,40.54
2023-04-02T15:40:07.585Z,40.14
2023-04-02T15:42:37.829Z,40.36
2023-04-02T15:45:23.194Z,40.32
2023-04-02T15:47:58.288Z,40.69
2023-04-02T15:50:36.333Z,40.41
2023-04-02T15:53:09.526Z,40.44
2023-04-02T15:55:41.359Z,40.52
2023-04-02T15:58:20.532Z,40.88
2023-04-02T16:00:51.476Z,40.58
2023-04-02T16:03:32.503Z,40.66
2023-04-02T16:06:10.940Z,40.22
2023-04-02T16:08:45.350Z,40.36
2023-04-02T16:11:14.594Z,40.49
2023-04-02T16:13:42.295Z,40.14
2023-04-02T16:16:11.910Z,40.29
2023-04-02T16:18:43.246Z,40.35
2023-04-02T16:21:13.644Z,40.19
2023-04-02T16:23:41.237Z,40.04
2023-04-02T16:26:17.447Z,40.04
2023-04-02T16:28:51.111Z,40.21
2023-04-02T16:31:23.202Z,40.28
2023-04-02T16:33:56.682Z,40.21
2023-04-02T16:36:29.527Z,40.42
2023-04-02T16:38:58.935Z,40.41
2023-04-02T16:41:33.957Z,40.66
2023-04-02T16:44:07.533Z,40.64
2023-04-02T16:46:40.376Z,40.55
2023-04-02T16:49:17.212Z,40.23
2023-04-02T16:51:48.027Z,40.15
2023-04-02T16:54:18.869Z,40.23
2023-04-02T16:56:54.561Z,40.27
2023-04-02T16:59:27.130Z,40.24
2023-04-02T17:01:58.104Z,40.06
2023-04-02T17:04:42.625Z,40.05
2023-04-02T17:07:15.182Z,40.06
2023-04-02T17:09:48.560Z,40.14
2023-04-02T17:12:16.983Z,39.94
2023-04-02T17:14:50.127Z,40.06
2023-04-02T17:17:17.257Z,39.97
2023-04-02T17:19:44.576Z,39.86
2023-04-02T17:22:14.552Z,39.91
2023-04-02T17:24:44.304Z,40.03
2023-04-02T17:27:16.282Z,40.10
2023-04-02T17:29:44.605Z,40.03
2023-04-02T17:32:17.350Z,40.12
2023-04-02T17:34:44.155Z,39.99
2023-04-02T17:37:18.967Z,40.05
2023-04-02T17:39:49.329Z,39.79
2023-04-02T17:42:20.731Z,39.87
2023-04-02T17:44:53.653Z,39.93
2023-04-02T17:47:23.034Z,39.79
2023-04-02T17:49:56.418Z,39.96
2023-04-02T17:52:24.682Z,39.98
2023-04-02T17:54:57.210Z,40.13
2023-04-02T17:57:32.295Z,39.54
2023-04-02T18:00:03.384Z,39.72
2023-04-02T18:02:39.103Z,39.60
2023-04-02T18:05:10.414Z,40.02
2023-04-02T18:07:41.672Z,39.77
2023-04-02T18:10:13.425Z,40.06
2023-04-02T18:12:50.522Z,39.91
2023-04-02T18:15:34.805Z,40.00
2023-04-02T18:18:06.173Z,40.08
2023-04-02T18:20:36.925Z,39.78
2023-04-02T18:23:08.319Z,39.86
2023-04-02T18:25:45.923Z,39.70
2023-04-02T18:28:21.767Z,39.46
2023-04-02T18:30:54.287Z,39.79
2023-04-02T18:33:32.602Z,39.53
2023-04-02T18:36:02.060Z,39.53
2023-04-02T18:38:31.542Z,39.60
2023-04-02T18:41:10.412Z,39.82
2023-04-02T18:43:42.484Z,39.52
2023-04-02T18:46:14.521Z,39.89
2023-04-02T18:48:47.754Z,39.57
2023-04-02T18:51:17.218Z,39.82
2023-04-02T18:53:44.185Z,39.77
2023-04-02T18:56:13.768Z,39.91
2023-04-02T18:58:42.186Z,39.54
2023-04-02T19:01:11.393Z,39.83
2023-04-02T19:03:41.337Z,39.55
2023-04-02T19:06:12.483Z,39.40
2023-04-02T19:08:41.600Z,39.35
2023-04-02T19:11:11.144Z,39.41
2023-04-02T19:13:38.008Z,39.56
2023-04-02T19:16:21.971Z,39.52
2023-04-02T19:18:54.305Z,39.65
2023-04-02T19:21:25.149Z,39.40
2023-04-02T19:24:00.334Z,39.55
2023-04-02T19:26:30.266Z,39.53
2023-04-02T19:29:04.223Z,39.63
2023-04-02T19:31:35.600Z,39.63
2023-04-02T19:34:08.071Z,39.48
2023-04-02T19:36:41.933Z,39.67
2023-04-02T19:39:21.386Z,39.55
2023-04-02T19:41:52.060Z,39.82
2023-04-02T19:44:18.937Z,39.49
2023-04-02T19:46:45.892Z,39.46
2023-04-02T19:49:14.395Z,39.55
2023-04-02T19:51:42.571Z,39.51
2023-04-02T19:54:09.637Z,39.43
2023-04-02T19:56:36.454Z,39.35
2023-04-02T19:59:17.258Z,39.20
2023-04-02T20:01:45.517Z,39.23
2023-04-02T20:04:12.677Z,39.48
2023-04-02T20:06:39.520Z,39.49
2023-04-02T20:09:07.707Z,39.14
2023-04-02T20:11:35.076Z,39.43
2023-04-02T20:14:02.275Z,39.51
2023-04-02T20:16:29.118Z,39.62
2023-04-02T20:18:56.626Z,39.37
2023-04-02T20:21:23.473Z,39.17
2023-04-02T20:23:52.699Z,39.51
2023-04-02T20:26:20.940Z,39.58
2023-04-02T20:28:47.789Z,39.39
2023-04-02T20:31:15.452Z,39.64
2023-04-02T20:33:42.969Z,39.33
2023-04-02T20:36:11.048Z,39.60
2023-04-02T20:38:37.916Z,39.29
2023-04-02T20:41:05.585Z,39.49
2023-04-02T20:43:34.180Z,39.15
2023-04-02T20:46:01.987Z,39.23
2023-04-02T20:48:29.210Z,39.40
2023-04-02T20:50:56.365Z,39.22
2023-04-02T20:53:23.196Z,39.34
2023-04-02T20:55:49.982Z,39.31
2023-04-02T20:58:17.887Z,39.37
2023-04-02T21:00:46.090Z,39.15
2023-04-02T21:03:12.898Z,39.18
2023-04-02T21:05:42.475Z,39.25
2023-04-02T21:08:09.340Z,39.04
2023-04-02T21:10:36.345Z,39.11
2023-04-02T21:13:03.287Z,39.25
2023-04-02T21:15:30.113Z,39.09
2023-04-02T21:17:58.362Z,39.29
2023-04-02T21:20:25.194Z,39.34
2023-04-02T21:22:52.029Z,39.27
2023-04-02T21:25:18.907Z,39.10
2023-04-02T21:27:45.779Z,38.84
2023-04-02T21:30:12.807Z,38.58
2023-04-02T21:32:39.679Z,38.61
2023-04-02T21:35:08.494Z,38.52
2023-04-02T21:37:35.359Z,38.45
2023-04-02T21:40:02.167Z,38.77
2023-04-02T21:42:28.973Z,38.75
2023-04-02T21:44:55.827Z,38.79
2023-04-02T21:47:22.698Z,38.53
2023-04-02T21:49:49.523Z,38.90
2023-04-02T21:52:17.863Z,38.74
2023-04-02T21:54:44.657Z,38.69
2023-04-02T21:57:11.630Z,38.58
2023-04-02T21:59:38.463Z,38.75
2023-04-02T22:02:05.262Z,39.00
2023-04-02T22:04:32.152Z,38.69
2023-04-02T22:06:59.074Z,38.95
2023-04-02T22:09:27.361Z,38.99
2023-04-02T22:11:55.031Z,38.78
2023-04-02T22:14:21.961Z,39.06
2023-04-02T22:16:48.853Z,38.86
2023-04-02T22:19:16.347Z,38.71
2023-04-02T22:21:43.618Z,38.95
2023-04-02T22:24:12.271Z,38.96
2023-04-02T22:26:40.621Z,38.65
2023-04-02T22:29:07.852Z,38.58
2023-04-02T22:31:35.069Z,38.60
2023-04-02T22:34:03.552Z,38.78
2023-04-02T22:36:30.839Z,38.71
2023-04-02T22:38:58.061Z,38.63
2023-04-02T22:41:25.719Z,38.86
2023-04-02T22:43:55.054Z,38.91
2023-04-02T22:46:22.117Z,38.91
2023-04-02T22:48:49.151Z,39.09
2023-04-02T22:51:18.332Z,38.89
2023-04-02T22:53:45.177Z,39.03
2023-04-02T22:56:12.968Z,38.75
2023-04-02T22:58:40.129Z,38.85
2023-04-02T23:01:09.562Z,38.91
2023-04-02T23:03:36.413Z,38.79
2023-04-02T23:06:04.722Z,38.72
2023-04-02T23:08:31.554Z,38.84
2023-04-02T23:11:01.910Z,38.69
2023-04-02T23:13:28.980Z,38.88
2023-04-02T23:15:55.934Z,38.90
2023-04-02T23:18:24.255Z,38.88
2023-04-02T23:20:51.181Z,38.85
2023-04-02T23:23:17.984Z,38.82
2023-04-02T23:25:44.783Z,38.65
2023-04-02T23:28:12.306Z,38.84
2023-04-02T23:30:40.484Z,38.71
2023-04-02T23:33:07.379Z,38.74
2023-04-02T23:35:35.659Z,38.66
2023-04-02T23:38:02.489Z,38.83
2023-04-02T23:40:29.287Z,38.98
2023-04-02T23:42:56.109Z,38.76
2023-04-02T23:45:23.017Z,38.95
2023-04-02T23:47:49.845Z,38.85
2023-04-02T23:50:16.791Z,38.73
2023-04-02T23:52:44.962Z,38.84
2023-04-02T23:55:11.798Z,38.83
2023-04-02T23:57:38.628Z,38.86
